Grandview, Illinois
Current Conditions -  °F | °C
As of 8:52 AM on Wednesday 26 Nov 2014 (Local Time) from KSPI Reporting Station
Clear Clear  
Wind Chill: 21°   Ceiling: Unl
Heat Index: 30°   Visibility: 10mi
Dew Point: 26°   Wind: 12mph
Humidity: 85%   Direction: 130°SE
Pressure: 30.09"   Gusts: NA
Location:  39.8235°N, 89.6438°W
Report Text: KSPI 261452Z 13010KT 10SM CLR M01/M03 A3009 RMK AO2 SLP196 T10111033 57004
Loading
Personal Weather Stations






























Interactive Weather Map New forecast layout! Learn more

10-Day Weather Forecast

Advertisements
Track Severe Weather on mobile